Impacts TAF Board INFO
FOR SITUATIONAL AWARENESS. NOT TO BE USED FOR FLIGHT PLANNING PURPOSES.
IDs:

KSTL - St Louis/Lambert Int, MO, US

Issued at 2056 UTC 21 Nov 2017
Updated at 2252 UTC 21 Nov 2017
Potential Impact None Slight Moderate High
Time2151Z 21/23Z 22/00Z 22/01Z 22/02Z 22/03Z 22/04Z 22/05Z 22/06Z 22/07Z 22/08Z 22/09Z 22/10Z 22/11Z>>
Type OBS PRVL PRVL PRVL PRVL PRVL PRVL PRVL PRVL PRVL PRVL PRVL PRVL PRVL
VIS 10 >6 >6 >6 >6 >6 >6 >6 >6 >6 >6 >6 >6 >6
CIG 90 110 110 110 110 -- -- -- -- -- -- -- -- --
Cover BKN OVC OVC OVC OVC SKC SKC SKC SKC SKC SKC SKC FEW FEW
FltCat VFR VFR VFR VFR VFR VFR VFR VFR VFR VFR VFR VFR VFR VFR
WX -- -- -- -- -- -- -- -- -- -- -- -- -- --
WDir 330 310 310 310 310 340 340 340 340 340 340 340 330 330
WSpd 18 13 13 13 13 9 9 9 9 9 9 9 5 5
WGst 24 -- -- -- -- -- -- -- -- -- -- -- -- --

Raw TAF
KSTL 212056Z 2121/2224 31013KT P6SM OVC110
  FM220300 34009KT P6SM SKC
  FM221000 33005KT P6SM FEW250


Raw METAR
KSTL 212151Z 33018G24KT 10SM BKN090 BKN110 BKN250 09/M06 A3008 RMK AO2 SLP189 T00891061
KSTL 212051Z 32013KT 10SM BKN110 BKN150 BKN250 10/M02 A3003 RMK AO2 SLP171 T01001017 53024
KSTL 211951Z 32010KT 10SM FEW100 BKN150 BKN250 13/00 A2999 RMK AO2 SLP158 T01280000

METAR Board
Radar Display
Forecast Discussion

FOR SITUATIONAL AWARENESS. NOT TO BE USED FOR FLIGHT PLANNING PURPOSES.